Maersk Bentonville — OZCZ2 — position and weather

sailwx.info

Track history (hours):
 
Tides and Currents Weather Stations Pressure Air Temp Water Temp Dewpoint Dewpoint Depression Visibility Wind Speed Wind Dir Waves Ship Positions

Maersk Bentonville

Last reported at 2015-May-28 12:33 UTC. Time now 2015-May-29 00:08 UTC.
Position S 36°24' E 175°21'.

Length 294 m; draft 9.5 m.

Type: Ship (hazmat cat A). MMSI: 219204000.

Date/timePositionNaut miles runAvg speedWind from/ knotsBaromVisibWave heightAir tempDewpointWater temp
2015-May-28 12:33S 36°24' E 175°21'14 7.0
2015-May-28 10:29S 36°33' E 175°07'0 0.3
2015-May-28 09:20S 36°33' E 175°07'0 0.4
2015-May-28 08:31S 36°33' E 175°07'0 0.5
2015-May-28 07:34S 36°33' E 175°08'1 1.1
2015-May-28 06:33S 36°34' E 175°06'1111.1
2015-May-28 05:33S 36°40' E 174°55'1111.3
2015-May-28 04:33S 36°50' E 174°49'2 1.6
2015-May-28 03:31S 36°51' E 174°47'0 0.0
2015-May-28 02:31S 36°51' E 174°47'0 0.0
2015-May-28 01:31S 36°51' E 174°47'0 0.0
2015-May-28 00:31S 36°51' E 174°47'0 0.0
2015-May-27 23:31S 36°51' E 174°47'0 0.0
2015-May-27 22:31S 36°51' E 174°47'0 0.0
2015-May-27 21:28S 36°51' E 174°47'0 0.0
2015-May-27 20:31S 36°51' E 174°47'0 0.0
2015-May-27 19:31S 36°51' E 174°47'0 0.0
2015-May-27 18:28S 36°51' E 174°47'0 0.0
2015-May-27 17:31S 36°51' E 174°47'0 0.0
2015-May-27 16:31S 36°51' E 174°47'0 0.0
2015-May-27 15:31S 36°51' E 174°47'0 0.0
2015-May-27 14:31S 36°51' E 174°47'0 0.0
2015-May-27 13:31S 36°51' E 174°47'0 0.0
2015-May-27 12:31S 36°51' E 174°47'0 0.0
2015-May-27 11:31S 36°51' E 174°47'0 0.0
2015-May-27 10:31S 36°51' E 174°47'1 0.6
2015-May-27 09:34S 36°50' E 174°48'1010.3
2015-May-27 08:33S 36°41' E 174°53'1313.0
2015-May-27 07:33S 36°29' E 174°60'1413.8
2015-May-27 06:33S 36°15' E 174°59'  
2015-May-19 00:00S 09°54' E 136°24'9616.1 130 / 221012.0 5.4 1.029.524.527.0
2015-May-18 18:00S 09°36' E 134°48'   130 / 191010.710.8 27.523.927.0
Track history (hours):
 
Tides and Currents Weather Stations Pressure Air Temp Water Temp Dewpoint Dewpoint Depression Visibility Wind Speed Wind Dir Waves Ship Positions

Maersk Bentonville

Last reported at 2015-May-28 12:33 UTC. Time now 2015-May-29 00:08 UTC.
Position S 36°24' E 175°21'.

Length 294 m; draft 9.5 m.

Type: Ship (hazmat cat A). MMSI: 219204000.

Date/timePositionNaut miles runAvg speedWind from/ knotsBaromVisibWave heightAir tempDewpointWater temp
2015-May-28 12:33S 36°24' E 175°21'14 7.0
2015-May-28 10:29S 36°33' E 175°07'0 0.3
2015-May-28 09:20S 36°33' E 175°07'0 0.4
2015-May-28 08:31S 36°33' E 175°07'0 0.5
2015-May-28 07:34S 36°33' E 175°08'1 1.1
2015-May-28 06:33S 36°34' E 175°06'1111.1
2015-May-28 05:33S 36°40' E 174°55'1111.3
2015-May-28 04:33S 36°50' E 174°49'2 1.6
2015-May-28 03:31S 36°51' E 174°47'0 0.0
2015-May-28 02:31S 36°51' E 174°47'0 0.0
2015-May-28 01:31S 36°51' E 174°47'0 0.0
2015-May-28 00:31S 36°51' E 174°47'0 0.0
2015-May-27 23:31S 36°51' E 174°47'0 0.0
2015-May-27 22:31S 36°51' E 174°47'0 0.0
2015-May-27 21:28S 36°51' E 174°47'0 0.0
2015-May-27 20:31S 36°51' E 174°47'0 0.0
2015-May-27 19:31S 36°51' E 174°47'0 0.0
2015-May-27 18:28S 36°51' E 174°47'0 0.0
2015-May-27 17:31S 36°51' E 174°47'0 0.0
2015-May-27 16:31S 36°51' E 174°47'0 0.0
2015-May-27 15:31S 36°51' E 174°47'0 0.0
2015-May-27 14:31S 36°51' E 174°47'0 0.0
2015-May-27 13:31S 36°51' E 174°47'0 0.0
2015-May-27 12:31S 36°51' E 174°47'0 0.0
2015-May-27 11:31S 36°51' E 174°47'0 0.0
2015-May-27 10:31S 36°51' E 174°47'1 0.6
2015-May-27 09:34S 36°50' E 174°48'1010.3
2015-May-27 08:33S 36°41' E 174°53'1313.0
2015-May-27 07:33S 36°29' E 174°60'1413.8
2015-May-27 06:33S 36°15' E 174°59'  
2015-May-19 00:00S 09°54' E 136°24'9616.1 130 / 221012.0 5.4 1.029.524.527.0
2015-May-18 18:00S 09°36' E 134°48'   130 / 191010.710.8 27.523.927.0

Dump ship's entire track history